sensor_id;sensor_type;location;lat;lon;timestamp;pressure;altitude;pressure_sealevel;temperature;humidity
55315;BME280;41619;42.816;23.226;2023-03-18T09:02:53;95879.56;;;28.59;19.34
55315;BME280;41619;42.816;23.226;2023-03-18T09:05:19;95878.69;;;27.70;18.83
55315;BME280;41619;42.816;23.226;2023-03-18T09:07:45;95878.28;;;25.39;20.39
55315;BME280;41619;42.816;23.226;2023-03-18T09:10:12;95874.75;;;23.01;21.09
55315;BME280;41619;42.816;23.226;2023-03-18T09:12:39;95884.16;;;19.66;23.87
55315;BME280;41619;42.816;23.226;2023-03-18T09:15:06;95882.09;;;17.10;26.58
55315;BME280;41619;42.816;23.226;2023-03-18T09:17:31;95892.00;;;15.56;28.41
55315;BME280;41619;42.816;23.226;2023-03-18T09:19:57;95889.56;;;14.41;29.52
55315;BME280;41619;42.816;23.226;2023-03-18T09:22:22;95887.66;;;13.41;30.35
55315;BME280;41619;42.816;23.226;2023-03-18T09:24:48;95893.06;;;12.58;30.96
55315;BME280;41619;42.816;23.226;2023-03-18T09:27:13;95894.03;;;12.01;31.98
55315;BME280;41619;42.816;23.226;2023-03-18T09:29:39;95899.97;;;11.83;32.30
55315;BME280;41619;42.816;23.226;2023-03-18T09:32:04;95905.44;;;12.26;32.32
55315;BME280;41619;42.816;23.226;2023-03-18T09:34:30;95893.78;;;12.78;31.97
55315;BME280;41619;42.816;23.226;2023-03-18T09:36:56;95888.34;;;12.82;32.20
55315;BME280;41619;42.816;23.226;2023-03-18T09:39:22;95886.38;;;12.82;32.12
55315;BME280;41619;42.816;23.226;2023-03-18T09:44:24;95890.06;;;12.21;32.91
55315;BME280;41619;42.816;23.226;2023-03-18T09:46:59;95889.47;;;11.70;33.57
55315;BME280;41619;42.816;23.226;2023-03-18T09:54:55;95881.97;;;10.42;34.53
55315;BME280;41619;42.816;23.226;2023-03-18T09:57:28;95893.47;;;10.04;35.49
55315;BME280;41619;42.816;23.226;2023-03-18T10:00:05;95892.09;;;9.82;35.76
55315;BME280;41619;42.816;23.226;2023-03-18T10:02:40;95891.81;;;9.71;36.19
55315;BME280;41619;42.816;23.226;2023-03-18T10:05:25;95897.31;;;9.59;36.39
55315;BME280;41619;42.816;23.226;2023-03-18T10:07:56;95901.78;;;9.52;36.41
55315;BME280;41619;42.816;23.226;2023-03-18T10:10:35;95898.41;;;9.43;36.66
55315;BME280;41619;42.816;23.226;2023-03-18T10:13:15;95895.25;;;9.28;36.56
55315;BME280;41619;42.816;23.226;2023-03-18T10:15:46;95901.22;;;9.18;36.85
55315;BME280;41619;42.816;23.226;2023-03-18T10:18:19;95896.66;;;9.10;36.99
55315;BME280;41619;42.816;23.226;2023-03-18T10:23:44;95893.56;;;9.80;36.96
55315;BME280;41619;42.816;23.226;2023-03-18T10:32:14;95884.81;;;13.34;33.47
55315;BME280;41619;42.816;23.226;2023-03-18T10:37:26;95864.91;;;19.08;28.62
55315;BME280;41619;42.816;23.226;2023-03-18T10:39:57;95872.09;;;20.72;26.85
55315;BME280;41619;42.816;23.226;2023-03-18T10:42:26;95864.88;;;22.27;25.83
55315;BME280;41619;42.816;23.226;2023-03-18T10:44:57;95859.41;;;23.70;24.53
55315;BME280;41619;42.816;23.226;2023-03-18T10:47:31;95855.41;;;24.55;23.44
55315;BME280;41619;42.816;23.226;2023-03-18T10:50:17;95855.47;;;24.89;23.30
55315;BME280;41619;42.816;23.226;2023-03-18T10:55:34;95854.16;;;25.54;22.09
55315;BME280;41619;42.816;23.226;2023-03-18T10:58:12;95844.50;;;25.08;22.04
55315;BME280;41619;42.816;23.226;2023-03-18T11:00:39;95850.69;;;25.50;22.42
55315;BME280;41619;42.816;23.226;2023-03-18T11:03:05;95838.56;;;25.87;21.15
55315;BME280;41619;42.816;23.226;2023-03-18T11:05:34;95840.78;;;25.58;19.52
55315;BME280;41619;42.816;23.226;2023-03-18T11:10:27;95827.00;;;23.73;19.59
55315;BME280;41619;42.816;23.226;2023-03-18T11:12:58;95827.03;;;23.27;19.50
55315;BME280;41619;42.816;23.226;2023-03-18T11:15:28;95830.78;;;22.20;19.61
55315;BME280;41619;42.816;23.226;2023-03-18T11:17:58;95833.34;;;20.31;21.16
55315;BME280;41619;42.816;23.226;2023-03-18T11:20:36;95832.97;;;18.92;22.23
55315;BME280;41619;42.816;23.226;2023-03-18T11:23:15;95834.94;;;17.70;23.29
55315;BME280;41619;42.816;23.226;2023-03-18T11:25:45;95840.66;;;16.95;24.06
55315;BME280;41619;42.816;23.226;2023-03-18T11:28:20;95830.75;;;16.52;24.46
55315;BME280;41619;42.816;23.226;2023-03-18T11:30:49;95829.56;;;16.21;24.38
55315;BME280;41619;42.816;23.226;2023-03-18T11:33:17;95832.59;;;15.80;24.80
55315;BME280;41619;42.816;23.226;2023-03-18T11:38:25;95831.63;;;15.40;25.63
55315;BME280;41619;42.816;23.226;2023-03-18T11:40:56;95829.25;;;15.39;26.08
55315;BME280;41619;42.816;23.226;2023-03-18T11:43:29;95833.66;;;15.51;26.25
55315;BME280;41619;42.816;23.226;2023-03-18T11:45:56;95827.84;;;15.63;26.77
55315;BME280;41619;42.816;23.226;2023-03-18T12:04:08;95824.66;;;14.88;26.65
55315;BME280;41619;42.816;23.226;2023-03-18T12:09:45;95826.84;;;14.20;26.55
55315;BME280;41619;42.816;23.226;2023-03-18T12:15:14;95828.66;;;13.69;27.28
55315;BME280;41619;42.816;23.226;2023-03-18T12:17:57;95822.09;;;13.43;27.63
55315;BME280;41619;42.816;23.226;2023-03-18T12:26:04;95817.66;;;12.52;28.35
55315;BME280;41619;42.816;23.226;2023-03-18T12:34:32;95817.72;;;12.82;28.31
55315;BME280;41619;42.816;23.226;2023-03-18T12:44:57;95815.66;;;13.32;27.98
55315;BME280;41619;42.816;23.226;2023-03-18T12:50:40;95823.03;;;13.24;28.02
55315;BME280;41619;42.816;23.226;2023-03-18T12:53:16;95821.94;;;13.02;27.80
55315;BME280;41619;42.816;23.226;2023-03-18T12:55:45;95821.94;;;13.02;27.95
55315;BME280;41619;42.816;23.226;2023-03-18T12:58:18;95812.28;;;12.86;27.73
55315;BME280;41619;42.816;23.226;2023-03-18T13:00:52;95817.53;;;12.68;27.95
55315;BME280;41619;42.816;23.226;2023-03-18T13:05:47;95815.03;;;12.59;28.15
55315;BME280;41619;42.816;23.226;2023-03-18T13:08:27;95827.34;;;12.69;28.33
55315;BME280;41619;42.816;23.226;2023-03-18T13:11:07;95819.09;;;12.69;27.89
55315;BME280;41619;42.816;23.226;2023-03-18T13:13:35;95821.31;;;12.60;28.12
55315;BME280;41619;42.816;23.226;2023-03-18T13:16:04;95823.13;;;12.49;28.37
55315;BME280;41619;42.816;23.226;2023-03-18T13:18:39;95822.97;;;12.41;28.57
55315;BME280;41619;42.816;23.226;2023-03-18T13:21:10;95833.34;;;12.52;28.78
55315;BME280;41619;42.816;23.226;2023-03-18T13:35:27;95832.56;;;11.82;29.07
55315;BME280;41619;42.816;23.226;2023-03-18T13:41:06;95825.84;;;11.80;28.37
55315;BME280;41619;42.816;23.226;2023-03-18T13:43:39;95829.50;;;11.68;28.73
55315;BME280;41619;42.816;23.226;2023-03-18T13:46:23;95828.22;;;11.62;29.03
55315;BME280;41619;42.816;23.226;2023-03-18T13:48:54;95821.59;;;11.44;29.16
55315;BME280;41619;42.816;23.226;2023-03-18T13:53:51;95814.53;;;11.43;28.85
55315;BME280;41619;42.816;23.226;2023-03-18T13:58:56;95811.06;;;11.46;29.04
55315;BME280;41619;42.816;23.226;2023-03-18T14:01:29;95810.66;;;11.44;29.35
55315;BME280;41619;42.816;23.226;2023-03-18T14:04:01;95811.66;;;11.36;29.38
55315;BME280;41619;42.816;23.226;2023-03-18T14:09:33;95807.25;;;11.31;29.24
55315;BME280;41619;42.816;23.226;2023-03-18T14:22:41;95809.97;;;10.57;29.78
55315;BME280;41619;42.816;23.226;2023-03-18T14:36:07;95810.28;;;10.37;30.28
55315;BME280;41619;42.816;23.226;2023-03-18T14:38:48;95819.47;;;10.28;30.16
55315;BME280;41619;42.816;23.226;2023-03-18T14:41:26;95814.84;;;10.17;30.34
55315;BME280;41619;42.816;23.226;2023-03-18T14:44:32;95816.19;;;10.07;29.80
55315;BME280;41619;42.816;23.226;2023-03-18T14:47:04;95814.69;;;9.94;30.01
55315;BME280;41619;42.816;23.226;2023-03-18T14:49:47;95809.47;;;9.89;29.42
55315;BME280;41619;42.816;23.226;2023-03-18T14:52:27;95815.09;;;9.80;29.60
55315;BME280;41619;42.816;23.226;2023-03-18T14:54:56;95812.91;;;9.70;29.95
55315;BME280;41619;42.816;23.226;2023-03-18T14:57:23;95814.00;;;9.53;30.06
55315;BME280;41619;42.816;23.226;2023-03-18T14:59:50;95819.63;;;9.45;30.38
55315;BME280;41619;42.816;23.226;2023-03-18T15:02:22;95814.16;;;9.45;30.26
55315;BME280;41619;42.816;23.226;2023-03-18T15:04:51;95819.53;;;9.41;30.46
55315;BME280;41619;42.816;23.226;2023-03-18T15:07:17;95816.00;;;9.40;30.71
55315;BME280;41619;42.816;23.226;2023-03-18T15:09:45;95816.88;;;9.45;30.60
55315;BME280;41619;42.816;23.226;2023-03-18T15:12:21;95813.56;;;9.51;30.95
55315;BME280;41619;42.816;23.226;2023-03-18T15:14:49;95812.97;;;9.58;31.05
55315;BME280;41619;42.816;23.226;2023-03-18T15:17:15;95815.78;;;9.61;31.33
55315;BME280;41619;42.816;23.226;2023-03-18T15:19:42;95816.56;;;9.62;31.20
55315;BME280;41619;42.816;23.226;2023-03-18T15:22:16;95834.47;;;9.59;31.14
55315;BME280;41619;42.816;23.226;2023-03-18T15:24:45;95837.00;;;9.52;31.44
55315;BME280;41619;42.816;23.226;2023-03-18T15:27:17;95836.72;;;9.41;31.96
55315;BME280;41619;42.816;23.226;2023-03-18T15:29:49;95843.56;;;9.35;31.94
55315;BME280;41619;42.816;23.226;2023-03-18T15:32:31;95838.25;;;9.27;32.27
55315;BME280;41619;42.816;23.226;2023-03-18T15:37:35;95857.19;;;9.07;32.26
55315;BME280;41619;42.816;23.226;2023-03-18T15:42:55;95866.69;;;8.98;33.00
55315;BME280;41619;42.816;23.226;2023-03-18T15:45:26;95859.97;;;8.95;33.32
55315;BME280;41619;42.816;23.226;2023-03-18T15:47:52;95871.09;;;8.90;33.17
55315;BME280;41619;42.816;23.226;2023-03-18T15:52:45;95861.47;;;8.80;33.77
55315;BME280;41619;42.816;23.226;2023-03-18T15:55:45;95872.16;;;8.73;34.08
55315;BME280;41619;42.816;23.226;2023-03-18T15:58:18;95867.63;;;8.65;34.08
55315;BME280;41619;42.816;23.226;2023-03-18T16:00:45;95877.97;;;8.60;34.17
55315;BME280;41619;42.816;23.226;2023-03-18T16:03:20;95871.94;;;8.54;33.95
55315;BME280;41619;42.816;23.226;2023-03-18T16:05:47;95877.19;;;8.47;34.19
55315;BME280;41619;42.816;23.226;2023-03-18T16:08:14;95885.94;;;8.40;34.30
55315;BME280;41619;42.816;23.226;2023-03-18T16:10:40;95889.22;;;8.34;34.44
55315;BME280;41619;42.816;23.226;2023-03-18T16:13:05;95894.75;;;8.25;34.72
55315;BME280;41619;42.816;23.226;2023-03-18T16:15:31;95898.38;;;8.17;34.52
55315;BME280;41619;42.816;23.226;2023-03-18T16:17:57;95896.53;;;8.09;34.94
55315;BME280;41619;42.816;23.226;2023-03-18T16:20:24;95900.50;;;7.99;35.23
55315;BME280;41619;42.816;23.226;2023-03-18T16:22:52;95901.38;;;7.91;34.79
55315;BME280;41619;42.816;23.226;2023-03-18T16:25:18;95899.91;;;7.81;34.68
55315;BME280;41619;42.816;23.226;2023-03-18T16:27:45;95902.69;;;7.73;34.84
55315;BME280;41619;42.816;23.226;2023-03-18T16:32:44;95910.13;;;7.51;35.77
55315;BME280;41619;42.816;23.226;2023-03-18T16:35:19;95922.19;;;7.42;36.32
55315;BME280;41619;42.816;23.226;2023-03-18T16:37:45;95909.34;;;7.30;35.96
55315;BME280;41619;42.816;23.226;2023-03-18T16:40:17;95910.53;;;7.20;36.37
55315;BME280;41619;42.816;23.226;2023-03-18T16:42:44;95915.25;;;7.11;36.17
55315;BME280;41619;42.816;23.226;2023-03-18T16:45:18;95919.16;;;7.02;36.84
55315;BME280;41619;42.816;23.226;2023-03-18T16:47:45;95921.16;;;6.92;36.84
55315;BME280;41619;42.816;23.226;2023-03-18T16:50:22;95928.56;;;6.83;36.77
55315;BME280;41619;42.816;23.226;2023-03-18T16:52:49;95927.50;;;6.76;36.85
55315;BME280;41619;42.816;23.226;2023-03-18T16:55:16;95936.81;;;6.66;37.71
55315;BME280;41619;42.816;23.226;2023-03-18T16:57:55;95933.69;;;6.55;37.96
55315;BME280;41619;42.816;23.226;2023-03-18T17:00:25;95937.53;;;6.46;38.05
55315;BME280;41619;42.816;23.226;2023-03-18T17:02:54;95935.22;;;6.35;37.64
55315;BME280;41619;42.816;23.226;2023-03-18T17:05:20;95936.50;;;6.29;37.77
55315;BME280;41619;42.816;23.226;2023-03-18T17:07:46;95939.25;;;6.21;37.95
55315;BME280;41619;42.816;23.226;2023-03-18T17:10:13;95941.69;;;6.14;38.41
55315;BME280;41619;42.816;23.226;2023-03-18T17:12:45;95947.94;;;6.05;38.45
55315;BME280;41619;42.816;23.226;2023-03-18T17:15:13;95947.63;;;5.98;38.48
55315;BME280;41619;42.816;23.226;2023-03-18T17:17:40;95941.88;;;5.91;38.56
55315;BME280;41619;42.816;23.226;2023-03-18T17:20:14;95958.97;;;5.83;38.52
55315;BME280;41619;42.816;23.226;2023-03-18T17:22:40;95956.25;;;5.74;39.04
55315;BME280;41619;42.816;23.226;2023-03-18T17:25:08;95959.66;;;5.63;39.58
55315;BME280;41619;42.816;23.226;2023-03-18T17:28:09;95971.31;;;5.55;39.51
55315;BME280;41619;42.816;23.226;2023-03-18T17:30:38;95975.31;;;5.48;39.91
55315;BME280;41619;42.816;23.226;2023-03-18T17:33:19;95974.81;;;5.38;40.19
55315;BME280;41619;42.816;23.226;2023-03-18T17:35:45;95984.25;;;5.32;40.32
55315;BME280;41619;42.816;23.226;2023-03-18T17:38:10;95978.50;;;5.25;40.29
55315;BME280;41619;42.816;23.226;2023-03-18T17:40:36;95977.84;;;5.19;40.16
55315;BME280;41619;42.816;23.226;2023-03-18T17:43:01;95975.13;;;5.10;40.63
55315;BME280;41619;42.816;23.226;2023-03-18T17:45:33;95980.34;;;4.98;41.02
55315;BME280;41619;42.816;23.226;2023-03-18T17:50:46;95997.06;;;4.83;41.50
55315;BME280;41619;42.816;23.226;2023-03-18T17:53:42;95999.78;;;4.74;41.88
55315;BME280;41619;42.816;23.226;2023-03-18T17:56:13;96002.47;;;4.66;42.07
55315;BME280;41619;42.816;23.226;2023-03-18T17:58:42;96013.44;;;4.61;42.12
55315;BME280;41619;42.816;23.226;2023-03-18T18:01:17;96020.13;;;4.54;42.61
55315;BME280;41619;42.816;23.226;2023-03-18T18:03:43;96013.84;;;4.45;42.67
55315;BME280;41619;42.816;23.226;2023-03-18T18:06:15;96025.44;;;4.37;43.04
55315;BME280;41619;42.816;23.226;2023-03-18T18:08:40;96022.41;;;4.30;42.80
55315;BME280;41619;42.816;23.226;2023-03-18T18:11:23;96031.75;;;4.24;43.52
55315;BME280;41619;42.816;23.226;2023-03-18T18:13:50;96022.47;;;4.16;43.42
55315;BME280;41619;42.816;23.226;2023-03-18T18:16:16;96034.56;;;4.10;43.15
55315;BME280;41619;42.816;23.226;2023-03-18T18:18:42;96035.78;;;4.04;44.00
55315;BME280;41619;42.816;23.226;2023-03-18T18:21:11;96037.19;;;4.02;43.89
55315;BME280;41619;42.816;23.226;2023-03-18T18:23:42;96040.53;;;3.99;43.78
55315;BME280;41619;42.816;23.226;2023-03-18T18:26:14;96044.97;;;3.94;43.90
55315;BME280;41619;42.816;23.226;2023-03-18T18:28:48;96048.00;;;3.93;44.44
55315;BME280;41619;42.816;23.226;2023-03-18T18:31:14;96046.69;;;3.90;44.32
55315;BME280;41619;42.816;23.226;2023-03-18T18:33:42;96052.91;;;3.91;44.64
55315;BME280;41619;42.816;23.226;2023-03-18T18:36:09;96056.41;;;3.91;44.75
55315;BME280;41619;42.816;23.226;2023-03-18T18:38:34;96055.63;;;3.91;44.52
55315;BME280;41619;42.816;23.226;2023-03-18T18:41:00;96059.13;;;3.91;44.58
55315;BME280;41619;42.816;23.226;2023-03-18T18:43:26;96061.53;;;3.93;44.39
55315;BME280;41619;42.816;23.226;2023-03-18T18:45:53;96069.34;;;3.94;44.62
55315;BME280;41619;42.816;23.226;2023-03-18T18:48:37;96060.91;;;3.96;44.73
55315;BME280;41619;42.816;23.226;2023-03-18T18:51:03;96061.22;;;3.94;44.40
55315;BME280;41619;42.816;23.226;2023-03-18T18:53:31;96062.31;;;3.93;44.55
55315;BME280;41619;42.816;23.226;2023-03-18T18:56:05;96061.03;;;3.91;44.55
55315;BME280;41619;42.816;23.226;2023-03-18T18:58:31;96065.34;;;3.92;44.48
55315;BME280;41619;42.816;23.226;2023-03-18T19:00:58;96059.41;;;3.90;44.89
55315;BME280;41619;42.816;23.226;2023-03-18T19:03:28;96065.13;;;3.88;44.69
55315;BME280;41619;42.816;23.226;2023-03-18T19:05:55;96065.75;;;3.85;44.76
55315;BME280;41619;42.816;23.226;2023-03-18T19:10:55;96067.13;;;3.74;45.12
55315;BME280;41619;42.816;23.226;2023-03-18T19:13:22;96074.22;;;3.70;45.25
55315;BME280;41619;42.816;23.226;2023-03-18T19:15:49;96082.78;;;3.63;45.48
55315;BME280;41619;42.816;23.226;2023-03-18T19:18:25;96085.63;;;3.58;45.89
55315;BME280;41619;42.816;23.226;2023-03-18T19:20:52;96081.41;;;3.52;45.87
55315;BME280;41619;42.816;23.226;2023-03-18T19:23:24;96082.94;;;3.45;46.54
55315;BME280;41619;42.816;23.226;2023-03-18T19:25:51;96093.38;;;3.38;46.40
55315;BME280;41619;42.816;23.226;2023-03-18T19:28:23;96086.28;;;3.28;47.14
55315;BME280;41619;42.816;23.226;2023-03-18T19:31:07;96093.09;;;3.12;46.84
55315;BME280;41619;42.816;23.226;2023-03-18T19:33:33;96090.63;;;3.01;46.76
55315;BME280;41619;42.816;23.226;2023-03-18T19:35:59;96091.00;;;2.95;47.29
55315;BME280;41619;42.816;23.226;2023-03-18T19:38:25;96095.09;;;2.92;47.31
55315;BME280;41619;42.816;23.226;2023-03-18T19:40:51;96091.41;;;2.88;47.55
55315;BME280;41619;42.816;23.226;2023-03-18T19:43:19;96095.03;;;2.84;47.96
55315;BME280;41619;42.816;23.226;2023-03-18T19:45:46;96101.59;;;2.78;48.09
55315;BME280;41619;42.816;23.226;2023-03-18T19:48:15;96101.22;;;2.70;48.51
55315;BME280;41619;42.816;23.226;2023-03-18T19:50:42;96100.31;;;2.61;47.92
55315;BME280;41619;42.816;23.226;2023-03-18T19:53:10;96105.50;;;2.58;48.43
55315;BME280;41619;42.816;23.226;2023-03-18T19:55:36;96111.59;;;2.50;48.85
55315;BME280;41619;42.816;23.226;2023-03-18T19:58:01;96108.75;;;2.41;48.41
55315;BME280;41619;42.816;23.226;2023-03-18T20:00:27;96116.47;;;2.34;48.96
55315;BME280;41619;42.816;23.226;2023-03-18T20:02:53;96110.84;;;2.30;49.18
55315;BME280;41619;42.816;23.226;2023-03-18T20:05:21;96108.44;;;2.29;49.62
55315;BME280;41619;42.816;23.226;2023-03-18T20:07:47;96113.56;;;2.30;49.79
55315;BME280;41619;42.816;23.226;2023-03-18T20:10:15;96109.25;;;2.29;49.09
55315;BME280;41619;42.816;23.226;2023-03-18T20:12:43;96112.25;;;2.28;49.72
55315;BME280;41619;42.816;23.226;2023-03-18T20:15:20;96110.44;;;2.23;49.38
55315;BME280;41619;42.816;23.226;2023-03-18T20:17:48;96112.63;;;2.21;49.17
55315;BME280;41619;42.816;23.226;2023-03-18T20:20:21;96113.00;;;2.15;49.45
55315;BME280;41619;42.816;23.226;2023-03-18T20:22:59;96113.59;;;2.11;49.55
55315;BME280;41619;42.816;23.226;2023-03-18T20:25:32;96112.00;;;2.10;49.67
55315;BME280;41619;42.816;23.226;2023-03-18T20:28:00;96107.75;;;2.04;50.20
55315;BME280;41619;42.816;23.226;2023-03-18T20:30:30;96112.34;;;2.04;50.02
55315;BME280;41619;42.816;23.226;2023-03-18T20:32:56;96108.34;;;2.01;50.13
55315;BME280;41619;42.816;23.226;2023-03-18T20:35:26;96108.13;;;1.98;50.42
55315;BME280;41619;42.816;23.226;2023-03-18T20:37:53;96107.13;;;1.94;50.93
55315;BME280;41619;42.816;23.226;2023-03-18T20:40:27;96099.91;;;1.89;50.76
55315;BME280;41619;42.816;23.226;2023-03-18T20:42:53;96102.38;;;1.86;51.25
55315;BME280;41619;42.816;23.226;2023-03-18T20:45:20;96099.19;;;1.83;51.55
55315;BME280;41619;42.816;23.226;2023-03-18T20:47:46;96096.78;;;1.82;51.31
55315;BME280;41619;42.816;23.226;2023-03-18T20:50:17;96101.66;;;1.80;52.09
55315;BME280;41619;42.816;23.226;2023-03-18T20:52:43;96093.88;;;1.78;51.76
55315;BME280;41619;42.816;23.226;2023-03-18T20:55:23;96095.75;;;1.78;52.22
55315;BME280;41619;42.816;23.226;2023-03-18T20:57:50;96086.06;;;1.77;52.06
55315;BME280;41619;42.816;23.226;2023-03-18T21:00:18;96088.56;;;1.73;51.90
55315;BME280;41619;42.816;23.226;2023-03-18T21:02:45;96096.16;;;1.71;52.61
55315;BME280;41619;42.816;23.226;2023-03-18T21:05:12;96088.63;;;1.68;52.18
55315;BME280;41619;42.816;23.226;2023-03-18T21:07:37;96084.31;;;1.67;52.62
55315;BME280;41619;42.816;23.226;2023-03-18T21:10:07;96091.91;;;1.65;52.79
55315;BME280;41619;42.816;23.226;2023-03-18T21:12:34;96089.78;;;1.62;52.67
55315;BME280;41619;42.816;23.226;2023-03-18T21:15:00;96081.47;;;1.59;53.03
55315;BME280;41619;42.816;23.226;2023-03-18T21:17:26;96086.66;;;1.55;53.42
55315;BME280;41619;42.816;23.226;2023-03-18T21:19:54;96081.63;;;1.48;53.33
55315;BME280;41619;42.816;23.226;2023-03-18T21:22:28;96084.47;;;1.38;53.57
55315;BME280;41619;42.816;23.226;2023-03-18T21:24:55;96084.03;;;1.31;53.53
55315;BME280;41619;42.816;23.226;2023-03-18T21:27:25;96087.38;;;1.23;54.00
55315;BME280;41619;42.816;23.226;2023-03-18T21:29:53;96084.25;;;1.16;53.69
55315;BME280;41619;42.816;23.226;2023-03-18T21:32:22;96074.38;;;1.06;54.16
55315;BME280;41619;42.816;23.226;2023-03-18T21:34:49;96083.94;;;0.99;53.75
55315;BME280;41619;42.816;23.226;2023-03-18T21:37:17;96084.25;;;0.92;54.26
55315;BME280;41619;42.816;23.226;2023-03-18T21:39:43;96088.13;;;0.86;54.73
55315;BME280;41619;42.816;23.226;2023-03-18T21:42:38;96088.47;;;0.79;54.47
55315;BME280;41619;42.816;23.226;2023-03-18T21:45:09;96089.84;;;0.77;54.47
55315;BME280;41619;42.816;23.226;2023-03-18T21:47:35;96091.19;;;0.74;54.94
55315;BME280;41619;42.816;23.226;2023-03-18T21:50:01;96092.59;;;0.72;55.01
55315;BME280;41619;42.816;23.226;2023-03-18T21:52:31;96084.56;;;0.67;54.58
55315;BME280;41619;42.816;23.226;2023-03-18T21:54:58;96090.03;;;0.62;55.14
55315;BME280;41619;42.816;23.226;2023-03-18T21:57:24;96091.16;;;0.55;54.84
55315;BME280;41619;42.816;23.226;2023-03-18T21:59:50;96087.72;;;0.50;55.40
55315;BME280;41619;42.816;23.226;2023-03-18T22:04:55;96085.94;;;0.40;55.44
55315;BME280;41619;42.816;23.226;2023-03-18T22:07:28;96086.78;;;0.36;55.63
55315;BME280;41619;42.816;23.226;2023-03-18T22:09:54;96086.84;;;0.30;55.48
55315;BME280;41619;42.816;23.226;2023-03-18T22:12:24;96088.22;;;0.28;55.82
55315;BME280;41619;42.816;23.226;2023-03-18T22:14:50;96093.88;;;0.26;55.95
55315;BME280;41619;42.816;23.226;2023-03-18T22:17:24;96093.13;;;0.21;55.48
55315;BME280;41619;42.816;23.226;2023-03-18T22:19:50;96093.16;;;0.16;55.69
55315;BME280;41619;42.816;23.226;2023-03-18T22:22:18;96093.44;;;0.14;56.08
55315;BME280;41619;42.816;23.226;2023-03-18T22:24:44;96094.00;;;0.11;56.17
55315;BME280;41619;42.816;23.226;2023-03-18T22:27:23;96090.28;;;0.07;56.20
55315;BME280;41619;42.816;23.226;2023-03-18T22:29:51;96096.53;;;0.03;56.31
55315;BME280;41619;42.816;23.226;2023-03-18T22:32:27;96097.06;;;-0.01;56.43
55315;BME280;41619;42.816;23.226;2023-03-18T22:34:56;96092.53;;;-0.05;56.37
55315;BME280;41619;42.816;23.226;2023-03-18T22:37:23;96093.38;;;-0.10;56.32
55315;BME280;41619;42.816;23.226;2023-03-18T22:39:49;96095.03;;;-0.14;56.28
55315;BME280;41619;42.816;23.226;2023-03-18T22:42:20;96101.28;;;-0.18;56.47
55315;BME280;41619;42.816;23.226;2023-03-18T22:44:46;96101.00;;;-0.22;56.64
55315;BME280;41619;42.816;23.226;2023-03-18T22:47:17;96093.78;;;-0.26;57.38
55315;BME280;41619;42.816;23.226;2023-03-18T22:49:43;96089.78;;;-0.29;56.97
55315;BME280;41619;42.816;23.226;2023-03-18T22:52:28;96083.34;;;-0.33;57.37
55315;BME280;41619;42.816;23.226;2023-03-18T22:54:58;96089.81;;;-0.34;57.48
55315;BME280;41619;42.816;23.226;2023-03-18T22:57:25;96093.31;;;-0.34;57.70
55315;BME280;41619;42.816;23.226;2023-03-18T22:59:52;96085.53;;;-0.35;57.30
55315;BME280;41619;42.816;23.226;2023-03-18T23:02:20;96091.44;;;-0.38;57.39
55315;BME280;41619;42.816;23.226;2023-03-18T23:04:47;96091.72;;;-0.40;57.61
55315;BME280;41619;42.816;23.226;2023-03-18T23:07:25;96094.97;;;-0.43;57.70
55315;BME280;41619;42.816;23.226;2023-03-18T23:09:53;96087.47;;;-0.46;57.94
55315;BME280;41619;42.816;23.226;2023-03-18T23:12:19;96089.63;;;-0.48;57.93
55315;BME280;41619;42.816;23.226;2023-03-18T23:14:45;96098.78;;;-0.49;58.12
55315;BME280;41619;42.816;23.226;2023-03-18T23:17:18;96099.34;;;-0.52;57.97
55315;BME280;41619;42.816;23.226;2023-03-18T23:19:44;96101.81;;;-0.55;58.15
55315;BME280;41619;42.816;23.226;2023-03-18T23:22:15;96103.41;;;-0.59;58.55
55315;BME280;41619;42.816;23.226;2023-03-18T23:24:42;96096.19;;;-0.64;58.35
55315;BME280;41619;42.816;23.226;2023-03-18T23:27:07;96094.34;;;-0.69;58.31
55315;BME280;41619;42.816;23.226;2023-03-18T23:29:33;96095.72;;;-0.71;58.35
55315;BME280;41619;42.816;23.226;2023-03-18T23:31:59;96090.34;;;-0.71;58.33
55315;BME280;41619;42.816;23.226;2023-03-18T23:34:24;96098.69;;;-0.73;58.73
55315;BME280;41619;42.816;23.226;2023-03-18T23:36:50;96091.94;;;-0.75;58.92
55315;BME280;41619;42.816;23.226;2023-03-18T23:39:16;96097.31;;;-0.75;58.97
55315;BME280;41619;42.816;23.226;2023-03-18T23:41:41;96102.97;;;-0.77;58.98
55315;BME280;41619;42.816;23.226;2023-03-18T23:44:07;96100.56;;;-0.78;58.65
55315;BME280;41619;42.816;23.226;2023-03-18T23:46:32;96100.84;;;-0.80;58.90
55315;BME280;41619;42.816;23.226;2023-03-18T23:48:57;96102.50;;;-0.84;58.95
55315;BME280;41619;42.816;23.226;2023-03-18T23:51:23;96107.34;;;-0.86;59.49
55315;BME280;41619;42.816;23.226;2023-03-18T23:53:48;96109.22;;;-0.86;59.18
55315;BME280;41619;42.816;23.226;2023-03-18T23:56:13;96109.22;;;-0.86;59.51
55315;BME280;41619;42.816;23.226;2023-03-18T23:58:39;96112.72;;;-0.86;59.50
